CYLA

Aupaluk Airport

ICAO Code CYLA
IATA Code YPJ
Name Aupaluk Airport
Location Aupaluk, Quebec, CA
Elevation 121 Feet / 36.9 Meters
Latitude 59.29666667
Longitude -69.59972222
METAR CYLA 131519Z 35012G17KT 15SM -SN BKN012 OVC021 01/M02 A3009 RMK ST5SC3 VRY LGT PCPN SLP193
Extra information Display Charts and CFS
Display NOTAMS
Runway Length Width Surface Elevation
04 3521 ft 100 ft GRAVEL 74 ft
22 3521 ft 100 ft GRAVEL 121 ft